sensor_id;sensor_type;location;lat;lon;timestamp;P1;durP1;ratioP1;P2;durP2;ratioP2
9924;SDS011;5001;51.674;7.868;2023-10-13T00:00:34;14.90;;;9.82;;
9924;SDS011;5001;51.674;7.868;2023-10-13T00:03:07;14.70;;;8.98;;
9924;SDS011;5001;51.674;7.868;2023-10-13T00:05:42;16.33;;;10.60;;
9924;SDS011;5001;51.674;7.868;2023-10-13T00:08:11;18.08;;;11.02;;
9924;SDS011;5001;51.674;7.868;2023-10-13T00:10:41;18.58;;;10.05;;
9924;SDS011;5001;51.674;7.868;2023-10-13T00:13:08;21.90;;;10.63;;
9924;SDS011;5001;51.674;7.868;2023-10-13T00:15:39;23.00;;;11.43;;
9924;SDS011;5001;51.674;7.868;2023-10-13T00:18:27;19.92;;;9.80;;
9924;SDS011;5001;51.674;7.868;2023-10-13T00:21:03;13.90;;;9.45;;
9924;SDS011;5001;51.674;7.868;2023-10-13T00:23:42;17.50;;;9.55;;
9924;SDS011;5001;51.674;7.868;2023-10-13T00:26:24;18.13;;;10.88;;
9924;SDS011;5001;51.674;7.868;2023-10-13T00:28:57;13.75;;;8.88;;
9924;SDS011;5001;51.674;7.868;2023-10-13T00:31:32;14.20;;;9.50;;
9924;SDS011;5001;51.674;7.868;2023-10-13T00:34:03;12.07;;;8.75;;
9924;SDS011;5001;51.674;7.868;2023-10-13T00:36:42;12.48;;;9.13;;
9924;SDS011;5001;51.674;7.868;2023-10-13T00:39:29;17.33;;;9.05;;
9924;SDS011;5001;51.674;7.868;2023-10-13T00:41:57;15.15;;;8.63;;
9924;SDS011;5001;51.674;7.868;2023-10-13T00:44:25;14.63;;;8.25;;
9924;SDS011;5001;51.674;7.868;2023-10-13T00:47:04;14.00;;;9.35;;
9924;SDS011;5001;51.674;7.868;2023-10-13T00:49:34;12.07;;;8.35;;
9924;SDS011;5001;51.674;7.868;2023-10-13T00:52:06;16.73;;;9.30;;
9924;SDS011;5001;51.674;7.868;2023-10-13T00:54:36;13.82;;;8.50;;
9924;SDS011;5001;51.674;7.868;2023-10-13T00:57:04;19.42;;;9.48;;
9924;SDS011;5001;51.674;7.868;2023-10-13T00:59:38;14.88;;;9.07;;
9924;SDS011;5001;51.674;7.868;2023-10-13T01:02:08;11.93;;;8.02;;
9924;SDS011;5001;51.674;7.868;2023-10-13T01:04:54;12.85;;;8.93;;
9924;SDS011;5001;51.674;7.868;2023-10-13T01:07:21;10.57;;;7.60;;
9924;SDS011;5001;51.674;7.868;2023-10-13T01:09:50;12.88;;;9.02;;
9924;SDS011;5001;51.674;7.868;2023-10-13T01:12:17;12.57;;;8.35;;
9924;SDS011;5001;51.674;7.868;2023-10-13T01:14:44;14.15;;;8.95;;
9924;SDS011;5001;51.674;7.868;2023-10-13T01:17:12;16.10;;;8.57;;
9924;SDS011;5001;51.674;7.868;2023-10-13T01:19:39;15.90;;;8.85;;
9924;SDS011;5001;51.674;7.868;2023-10-13T01:22:12;13.05;;;8.70;;
9924;SDS011;5001;51.674;7.868;2023-10-13T01:24:39;12.18;;;8.05;;
9924;SDS011;5001;51.674;7.868;2023-10-13T01:27:07;15.07;;;8.07;;
9924;SDS011;5001;51.674;7.868;2023-10-13T01:29:45;13.70;;;8.50;;
9924;SDS011;5001;51.674;7.868;2023-10-13T01:32:19;15.43;;;7.07;;
9924;SDS011;5001;51.674;7.868;2023-10-13T01:34:49;12.38;;;8.95;;
9924;SDS011;5001;51.674;7.868;2023-10-13T01:37:22;14.98;;;8.18;;
9924;SDS011;5001;51.674;7.868;2023-10-13T01:39:53;11.88;;;8.15;;
9924;SDS011;5001;51.674;7.868;2023-10-13T01:42:26;14.20;;;8.90;;
9924;SDS011;5001;51.674;7.868;2023-10-13T01:45:02;15.02;;;7.88;;
9924;SDS011;5001;51.674;7.868;2023-10-13T01:47:44;13.20;;;7.80;;
9924;SDS011;5001;51.674;7.868;2023-10-13T01:50:18;11.65;;;7.95;;
9924;SDS011;5001;51.674;7.868;2023-10-13T01:52:57;10.95;;;7.63;;
9924;SDS011;5001;51.674;7.868;2023-10-13T01:55:39;10.68;;;7.60;;
9924;SDS011;5001;51.674;7.868;2023-10-13T01:58:14;13.43;;;7.55;;
9924;SDS011;5001;51.674;7.868;2023-10-13T02:04:49;12.07;;;6.32;;
9924;SDS011;5001;51.674;7.868;2023-10-13T02:07:21;9.43;;;6.57;;
9924;SDS011;5001;51.674;7.868;2023-10-13T02:09:53;10.73;;;7.13;;
9924;SDS011;5001;51.674;7.868;2023-10-13T02:12:20;9.30;;;7.10;;
9924;SDS011;5001;51.674;7.868;2023-10-13T02:14:54;10.63;;;5.93;;
9924;SDS011;5001;51.674;7.868;2023-10-13T02:17:21;10.30;;;6.82;;
9924;SDS011;5001;51.674;7.868;2023-10-13T02:19:53;13.00;;;6.80;;
9924;SDS011;5001;51.674;7.868;2023-10-13T02:22:20;12.75;;;7.13;;
9924;SDS011;5001;51.674;7.868;2023-10-13T02:24:58;9.35;;;5.90;;
9924;SDS011;5001;51.674;7.868;2023-10-13T02:27:33;14.40;;;6.32;;
9924;SDS011;5001;51.674;7.868;2023-10-13T02:30:07;8.07;;;6.18;;
9924;SDS011;5001;51.674;7.868;2023-10-13T02:32:41;9.60;;;6.20;;
9924;SDS011;5001;51.674;7.868;2023-10-13T02:35:10;8.48;;;6.32;;
9924;SDS011;5001;51.674;7.868;2023-10-13T02:37:42;9.77;;;6.00;;
9924;SDS011;5001;51.674;7.868;2023-10-13T02:40:21;13.15;;;7.15;;
9924;SDS011;5001;51.674;7.868;2023-10-13T02:42:49;10.15;;;6.82;;
9924;SDS011;5001;51.674;7.868;2023-10-13T02:45:17;12.57;;;6.40;;
9924;SDS011;5001;51.674;7.868;2023-10-13T02:47:52;12.50;;;6.13;;
9924;SDS011;5001;51.674;7.868;2023-10-13T02:50:38;7.78;;;6.07;;
9924;SDS011;5001;51.674;7.868;2023-10-13T02:53:09;14.30;;;7.63;;
9924;SDS011;5001;51.674;7.868;2023-10-13T02:55:50;10.27;;;6.65;;
9924;SDS011;5001;51.674;7.868;2023-10-13T02:58:19;9.52;;;6.55;;
9924;SDS011;5001;51.674;7.868;2023-10-13T03:00:48;11.63;;;6.28;;
9924;SDS011;5001;51.674;7.868;2023-10-13T03:03:22;7.80;;;6.63;;
9924;SDS011;5001;51.674;7.868;2023-10-13T03:05:58;8.80;;;5.88;;
9924;SDS011;5001;51.674;7.868;2023-10-13T03:08:40;11.18;;;6.57;;
9924;SDS011;5001;51.674;7.868;2023-10-13T03:11:12;6.95;;;5.40;;
9924;SDS011;5001;51.674;7.868;2023-10-13T03:13:43;9.80;;;6.50;;
9924;SDS011;5001;51.674;7.868;2023-10-13T03:16:15;6.90;;;5.70;;
9924;SDS011;5001;51.674;7.868;2023-10-13T03:18:59;10.88;;;6.63;;
9924;SDS011;5001;51.674;7.868;2023-10-13T03:21:37;9.63;;;5.80;;
9924;SDS011;5001;51.674;7.868;2023-10-13T03:24:25;13.25;;;5.93;;
9924;SDS011;5001;51.674;7.868;2023-10-13T03:27:04;9.25;;;5.43;;
9924;SDS011;5001;51.674;7.868;2023-10-13T03:29:45;8.48;;;6.20;;
9924;SDS011;5001;51.674;7.868;2023-10-13T03:32:21;9.80;;;6.15;;
9924;SDS011;5001;51.674;7.868;2023-10-13T03:34:48;14.30;;;6.38;;
9924;SDS011;5001;51.674;7.868;2023-10-13T03:37:37;7.30;;;5.38;;
9924;SDS011;5001;51.674;7.868;2023-10-13T03:40:05;9.20;;;5.95;;
9924;SDS011;5001;51.674;7.868;2023-10-13T03:42:53;11.13;;;5.82;;
9924;SDS011;5001;51.674;7.868;2023-10-13T03:45:34;7.35;;;5.35;;
9924;SDS011;5001;51.674;7.868;2023-10-13T03:48:10;7.72;;;5.30;;
9924;SDS011;5001;51.674;7.868;2023-10-13T03:50:57;7.50;;;4.95;;
9924;SDS011;5001;51.674;7.868;2023-10-13T03:53:34;11.95;;;7.03;;
9924;SDS011;5001;51.674;7.868;2023-10-13T03:56:22;8.55;;;5.45;;
9924;SDS011;5001;51.674;7.868;2023-10-13T03:58:58;6.85;;;5.43;;
9924;SDS011;5001;51.674;7.868;2023-10-13T04:01:41;11.45;;;5.90;;
9924;SDS011;5001;51.674;7.868;2023-10-13T04:04:25;9.40;;;5.82;;
9924;SDS011;5001;51.674;7.868;2023-10-13T04:07:03;9.50;;;6.47;;
9924;SDS011;5001;51.674;7.868;2023-10-13T04:09:35;13.18;;;6.88;;
9924;SDS011;5001;51.674;7.868;2023-10-13T04:12:06;9.32;;;5.65;;
9924;SDS011;5001;51.674;7.868;2023-10-13T04:14:40;10.98;;;6.30;;
9924;SDS011;5001;51.674;7.868;2023-10-13T04:17:29;7.03;;;5.18;;
9924;SDS011;5001;51.674;7.868;2023-10-13T04:20:00;8.07;;;5.40;;
9924;SDS011;5001;51.674;7.868;2023-10-13T04:22:38;7.47;;;5.70;;
9924;SDS011;5001;51.674;7.868;2023-10-13T04:28:06;10.93;;;6.35;;
9924;SDS011;5001;51.674;7.868;2023-10-13T04:30:43;10.35;;;5.20;;
9924;SDS011;5001;51.674;7.868;2023-10-13T04:33:23;8.45;;;6.30;;
9924;SDS011;5001;51.674;7.868;2023-10-13T04:36:04;11.18;;;5.60;;
9924;SDS011;5001;51.674;7.868;2023-10-13T04:38:51;12.90;;;7.22;;
9924;SDS011;5001;51.674;7.868;2023-10-13T04:41:31;13.07;;;6.90;;
9924;SDS011;5001;51.674;7.868;2023-10-13T04:44:16;8.98;;;6.15;;
9924;SDS011;5001;51.674;7.868;2023-10-13T04:47:02;8.23;;;5.95;;
9924;SDS011;5001;51.674;7.868;2023-10-13T04:49:30;14.20;;;6.25;;
9924;SDS011;5001;51.674;7.868;2023-10-13T04:52:02;15.13;;;5.97;;
9924;SDS011;5001;51.674;7.868;2023-10-13T04:54:45;12.18;;;6.57;;
9924;SDS011;5001;51.674;7.868;2023-10-13T04:57:15;16.75;;;6.85;;
9924;SDS011;5001;51.674;7.868;2023-10-13T05:00:02;9.52;;;6.32;;
9924;SDS011;5001;51.674;7.868;2023-10-13T05:02:40;8.35;;;6.28;;
9924;SDS011;5001;51.674;7.868;2023-10-13T05:05:21;11.38;;;6.38;;
9924;SDS011;5001;51.674;7.868;2023-10-13T05:07:51;10.25;;;6.93;;
9924;SDS011;5001;51.674;7.868;2023-10-13T05:10:37;11.05;;;6.70;;
9924;SDS011;5001;51.674;7.868;2023-10-13T05:13:22;13.25;;;6.75;;
9924;SDS011;5001;51.674;7.868;2023-10-13T05:16:08;10.82;;;7.20;;
9924;SDS011;5001;51.674;7.868;2023-10-13T05:18:54;10.55;;;5.90;;
9924;SDS011;5001;51.674;7.868;2023-10-13T05:21:40;11.85;;;7.63;;
9924;SDS011;5001;51.674;7.868;2023-10-13T05:24:25;14.75;;;7.25;;
9924;SDS011;5001;51.674;7.868;2023-10-13T05:27:15;13.20;;;8.20;;
9924;SDS011;5001;51.674;7.868;2023-10-13T05:30:01;10.85;;;7.55;;
9924;SDS011;5001;51.674;7.868;2023-10-13T05:32:47;17.25;;;11.20;;
9924;SDS011;5001;51.674;7.868;2023-10-13T05:35:32;11.20;;;6.85;;
9924;SDS011;5001;51.674;7.868;2023-10-13T05:38:17;10.43;;;6.40;;
9924;SDS011;5001;51.674;7.868;2023-10-13T05:41:04;10.25;;;7.18;;
9924;SDS011;5001;51.674;7.868;2023-10-13T05:43:51;12.60;;;8.02;;
9924;SDS011;5001;51.674;7.868;2023-10-13T05:46:37;12.90;;;7.90;;
9924;SDS011;5001;51.674;7.868;2023-10-13T05:49:07;14.18;;;8.50;;
9924;SDS011;5001;51.674;7.868;2023-10-13T05:51:40;17.85;;;8.55;;
9924;SDS011;5001;51.674;7.868;2023-10-13T05:54:08;12.02;;;7.13;;
9924;SDS011;5001;51.674;7.868;2023-10-13T05:56:50;14.80;;;7.03;;
9924;SDS011;5001;51.674;7.868;2023-10-13T05:59:39;11.63;;;7.40;;
9924;SDS011;5001;51.674;7.868;2023-10-13T06:02:25;11.25;;;6.72;;
9924;SDS011;5001;51.674;7.868;2023-10-13T06:05:11;12.23;;;6.85;;
9924;SDS011;5001;51.674;7.868;2023-10-13T06:07:58;8.82;;;6.43;;
9924;SDS011;5001;51.674;7.868;2023-10-13T06:10:43;10.02;;;6.35;;
9924;SDS011;5001;51.674;7.868;2023-10-13T06:13:30;10.43;;;6.32;;
9924;SDS011;5001;51.674;7.868;2023-10-13T06:16:16;8.75;;;6.45;;
9924;SDS011;5001;51.674;7.868;2023-10-13T06:19:02;14.18;;;5.93;;
9924;SDS011;5001;51.674;7.868;2023-10-13T06:21:48;8.15;;;5.32;;
9924;SDS011;5001;51.674;7.868;2023-10-13T06:24:33;12.07;;;5.93;;
9924;SDS011;5001;51.674;7.868;2023-10-13T06:27:19;9.45;;;6.13;;
9924;SDS011;5001;51.674;7.868;2023-10-13T06:30:05;9.70;;;5.60;;
9924;SDS011;5001;51.674;7.868;2023-10-13T06:32:32;9.73;;;5.75;;
9924;SDS011;5001;51.674;7.868;2023-10-13T06:35:00;8.40;;;5.47;;
9924;SDS011;5001;51.674;7.868;2023-10-13T06:37:53;9.75;;;4.97;;
9924;SDS011;5001;51.674;7.868;2023-10-13T06:40:20;7.65;;;5.05;;
9924;SDS011;5001;51.674;7.868;2023-10-13T06:42:50;14.50;;;5.47;;
9924;SDS011;5001;51.674;7.868;2023-10-13T06:45:22;8.90;;;4.80;;
9924;SDS011;5001;51.674;7.868;2023-10-13T06:47:50;7.93;;;4.53;;
9924;SDS011;5001;51.674;7.868;2023-10-13T06:50:20;6.03;;;4.60;;
9924;SDS011;5001;51.674;7.868;2023-10-13T06:52:51;5.55;;;3.90;;
9924;SDS011;5001;51.674;7.868;2023-10-13T06:55:21;8.52;;;5.22;;
9924;SDS011;5001;51.674;7.868;2023-10-13T06:57:55;5.70;;;4.45;;
9924;SDS011;5001;51.674;7.868;2023-10-13T07:00:27;6.78;;;4.90;;
9924;SDS011;5001;51.674;7.868;2023-10-13T07:02:56;7.35;;;4.03;;
9924;SDS011;5001;51.674;7.868;2023-10-13T07:05:45;7.75;;;4.28;;
9924;SDS011;5001;51.674;7.868;2023-10-13T07:08:18;8.63;;;4.35;;
9924;SDS011;5001;51.674;7.868;2023-10-13T07:10:52;6.97;;;4.10;;
9924;SDS011;5001;51.674;7.868;2023-10-13T07:13:44;7.90;;;3.92;;
9924;SDS011;5001;51.674;7.868;2023-10-13T07:16:20;7.07;;;4.32;;
9924;SDS011;5001;51.674;7.868;2023-10-13T07:18:53;6.25;;;4.10;;
9924;SDS011;5001;51.674;7.868;2023-10-13T07:21:24;7.75;;;4.45;;
9924;SDS011;5001;51.674;7.868;2023-10-13T07:24:03;6.15;;;3.15;;
9924;SDS011;5001;51.674;7.868;2023-10-13T07:26:42;10.88;;;5.88;;
9924;SDS011;5001;51.674;7.868;2023-10-13T07:29:16;7.70;;;5.95;;
9924;SDS011;5001;51.674;7.868;2023-10-13T07:31:54;5.32;;;3.75;;
9924;SDS011;5001;51.674;7.868;2023-10-13T07:34:25;8.18;;;4.65;;
9924;SDS011;5001;51.674;7.868;2023-10-13T07:37:00;6.95;;;3.80;;
9924;SDS011;5001;51.674;7.868;2023-10-13T07:39:37;9.18;;;3.80;;
9924;SDS011;5001;51.674;7.868;2023-10-13T07:42:06;7.07;;;3.72;;
9924;SDS011;5001;51.674;7.868;2023-10-13T07:44:41;5.07;;;3.28;;
9924;SDS011;5001;51.674;7.868;2023-10-13T07:47:13;7.30;;;3.38;;
9924;SDS011;5001;51.674;7.868;2023-10-13T07:49:41;6.50;;;3.60;;
9924;SDS011;5001;51.674;7.868;2023-10-13T07:52:08;3.20;;;2.70;;
9924;SDS011;5001;51.674;7.868;2023-10-13T07:54:47;4.95;;;3.20;;
9924;SDS011;5001;51.674;7.868;2023-10-13T07:57:15;4.05;;;2.60;;
9924;SDS011;5001;51.674;7.868;2023-10-13T07:59:43;5.70;;;2.63;;
9924;SDS011;5001;51.674;7.868;2023-10-13T08:02:19;4.05;;;2.67;;
9924;SDS011;5001;51.674;7.868;2023-10-13T08:05:09;6.72;;;2.80;;
9924;SDS011;5001;51.674;7.868;2023-10-13T08:07:40;9.00;;;3.50;;
9924;SDS011;5001;51.674;7.868;2023-10-13T08:10:08;4.93;;;2.97;;
9924;SDS011;5001;51.674;7.868;2023-10-13T08:12:36;7.10;;;3.42;;
9924;SDS011;5001;51.674;7.868;2023-10-13T08:15:04;3.75;;;3.30;;
9924;SDS011;5001;51.674;7.868;2023-10-13T08:17:59;6.97;;;3.53;;
9924;SDS011;5001;51.674;7.868;2023-10-13T08:20:45;8.13;;;3.45;;
9924;SDS011;5001;51.674;7.868;2023-10-13T08:23:14;6.43;;;2.58;;
9924;SDS011;5001;51.674;7.868;2023-10-13T08:25:48;4.30;;;2.95;;
9924;SDS011;5001;51.674;7.868;2023-10-13T08:28:34;6.57;;;3.33;;
9924;SDS011;5001;51.674;7.868;2023-10-13T08:31:23;5.90;;;2.92;;
9924;SDS011;5001;51.674;7.868;2023-10-13T08:33:56;6.85;;;3.15;;
9924;SDS011;5001;51.674;7.868;2023-10-13T08:36:43;6.55;;;3.35;;
9924;SDS011;5001;51.674;7.868;2023-10-13T08:39:11;9.02;;;3.92;;
9924;SDS011;5001;51.674;7.868;2023-10-13T08:41:58;9.75;;;3.55;;
9924;SDS011;5001;51.674;7.868;2023-10-13T08:44:44;7.75;;;3.53;;
9924;SDS011;5001;51.674;7.868;2023-10-13T08:47:18;6.35;;;2.85;;
9924;SDS011;5001;51.674;7.868;2023-10-13T08:49:51;8.63;;;3.42;;
9924;SDS011;5001;51.674;7.868;2023-10-13T08:52:37;4.85;;;2.60;;
9924;SDS011;5001;51.674;7.868;2023-10-13T08:55:15;8.93;;;3.10;;
9924;SDS011;5001;51.674;7.868;2023-10-13T08:58:03;11.30;;;3.15;;
9924;SDS011;5001;51.674;7.868;2023-10-13T09:00:42;5.60;;;3.60;;
9924;SDS011;5001;51.674;7.868;2023-10-13T09:03:41;5.78;;;2.72;;
9924;SDS011;5001;51.674;7.868;2023-10-13T09:06:10;7.68;;;2.80;;
9924;SDS011;5001;51.674;7.868;2023-10-13T09:08:46;10.95;;;3.20;;
9924;SDS011;5001;51.674;7.868;2023-10-13T09:11:33;4.85;;;2.80;;
9924;SDS011;5001;51.674;7.868;2023-10-13T09:14:18;10.68;;;2.83;;
9924;SDS011;5001;51.674;7.868;2023-10-13T09:17:01;9.93;;;4.05;;
9924;SDS011;5001;51.674;7.868;2023-10-13T09:19:49;7.90;;;3.90;;
9924;SDS011;5001;51.674;7.868;2023-10-13T09:22:24;5.50;;;3.28;;
9924;SDS011;5001;51.674;7.868;2023-10-13T09:25:02;6.20;;;3.20;;
9924;SDS011;5001;51.674;7.868;2023-10-13T09:27:39;12.18;;;4.35;;
9924;SDS011;5001;51.674;7.868;2023-10-13T09:30:07;7.90;;;4.47;;
9924;SDS011;5001;51.674;7.868;2023-10-13T09:33:00;17.42;;;6.82;;
9924;SDS011;5001;51.674;7.868;2023-10-13T09:35:28;12.80;;;5.43;;
9924;SDS011;5001;51.674;7.868;2023-10-13T09:38:03;15.57;;;4.45;;
9924;SDS011;5001;51.674;7.868;2023-10-13T09:40:31;12.77;;;3.95;;
9924;SDS011;5001;51.674;7.868;2023-10-13T09:43:04;8.82;;;4.30;;
9924;SDS011;5001;51.674;7.868;2023-10-13T09:45:35;13.57;;;5.63;;
9924;SDS011;5001;51.674;7.868;2023-10-13T09:48:47;10.75;;;5.05;;
9924;SDS011;5001;51.674;7.868;2023-10-13T09:51:31;9.85;;;5.20;;
9924;SDS011;5001;51.674;7.868;2023-10-13T09:54:04;8.02;;;3.58;;
9924;SDS011;5001;51.674;7.868;2023-10-13T09:57:22;8.63;;;3.53;;
9924;SDS011;5001;51.674;7.868;2023-10-13T09:59:52;7.78;;;2.97;;
9924;SDS011;5001;51.674;7.868;2023-10-13T10:02:36;8.00;;;4.18;;
9924;SDS011;5001;51.674;7.868;2023-10-13T10:05:10;13.43;;;3.72;;
9924;SDS011;5001;51.674;7.868;2023-10-13T10:07:55;8.30;;;3.80;;
9924;SDS011;5001;51.674;7.868;2023-10-13T10:10:44;8.88;;;3.72;;
9924;SDS011;5001;51.674;7.868;2023-10-13T10:13:26;8.00;;;3.30;;
9924;SDS011;5001;51.674;7.868;2023-10-13T10:16:05;10.02;;;3.40;;
9924;SDS011;5001;51.674;7.868;2023-10-13T10:18:41;8.73;;;4.25;;
9924;SDS011;5001;51.674;7.868;2023-10-13T10:21:09;7.90;;;4.18;;
9924;SDS011;5001;51.674;7.868;2023-10-13T10:23:37;7.05;;;3.65;;
9924;SDS011;5001;51.674;7.868;2023-10-13T10:26:13;7.50;;;3.50;;
9924;SDS011;5001;51.674;7.868;2023-10-13T10:28:43;9.63;;;3.97;;
9924;SDS011;5001;51.674;7.868;2023-10-13T10:31:11;11.43;;;3.47;;
9924;SDS011;5001;51.674;7.868;2023-10-13T10:33:46;14.30;;;3.95;;
9924;SDS011;5001;51.674;7.868;2023-10-13T10:36:17;6.13;;;3.97;;
9924;SDS011;5001;51.674;7.868;2023-10-13T10:38:56;8.27;;;3.72;;
9924;SDS011;5001;51.674;7.868;2023-10-13T10:41:30;10.23;;;3.53;;
9924;SDS011;5001;51.674;7.868;2023-10-13T10:44:10;9.70;;;4.22;;
9924;SDS011;5001;51.674;7.868;2023-10-13T10:46:50;7.35;;;3.58;;
9924;SDS011;5001;51.674;7.868;2023-10-13T10:49:38;11.65;;;4.78;;
9924;SDS011;5001;51.674;7.868;2023-10-13T10:52:05;10.82;;;3.70;;
9924;SDS011;5001;51.674;7.868;2023-10-13T10:54:41;13.43;;;4.25;;
9924;SDS011;5001;51.674;7.868;2023-10-13T10:57:11;6.90;;;4.10;;
9924;SDS011;5001;51.674;7.868;2023-10-13T10:59:38;7.95;;;3.83;;
9924;SDS011;5001;51.674;7.868;2023-10-13T11:02:08;11.93;;;4.95;;
9924;SDS011;5001;51.674;7.868;2023-10-13T11:04:42;10.02;;;4.32;;
9924;SDS011;5001;51.674;7.868;2023-10-13T11:07:22;7.38;;;3.90;;
9924;SDS011;5001;51.674;7.868;2023-10-13T11:09:50;6.80;;;3.90;;
9924;SDS011;5001;51.674;7.868;2023-10-13T11:12:33;11.57;;;3.60;;
9924;SDS011;5001;51.674;7.868;2023-10-13T11:15:06;9.77;;;4.05;;
9924;SDS011;5001;51.674;7.868;2023-10-13T11:17:48;11.77;;;4.40;;
9924;SDS011;5001;51.674;7.868;2023-10-13T11:20:23;10.07;;;4.32;;
9924;SDS011;5001;51.674;7.868;2023-10-13T11:22:59;6.85;;;4.15;;
9924;SDS011;5001;51.674;7.868;2023-10-13T11:25:31;9.10;;;4.32;;
9924;SDS011;5001;51.674;7.868;2023-10-13T11:30:54;11.48;;;3.90;;
9924;SDS011;5001;51.674;7.868;2023-10-13T11:33:42;8.80;;;4.50;;
9924;SDS011;5001;51.674;7.868;2023-10-13T11:36:13;13.35;;;4.50;;
9924;SDS011;5001;51.674;7.868;2023-10-13T11:38:49;5.85;;;3.92;;
9924;SDS011;5001;51.674;7.868;2023-10-13T11:41:17;10.23;;;5.00;;
9924;SDS011;5001;51.674;7.868;2023-10-13T11:46:20;11.93;;;4.50;;
9924;SDS011;5001;51.674;7.868;2023-10-13T11:49:03;7.57;;;4.13;;
9924;SDS011;5001;51.674;7.868;2023-10-13T11:51:40;16.60;;;4.32;;
9924;SDS011;5001;51.674;7.868;2023-10-13T11:54:18;17.08;;;4.13;;
9924;SDS011;5001;51.674;7.868;2023-10-13T11:56:49;7.93;;;3.90;;
9924;SDS011;5001;51.674;7.868;2023-10-13T11:59:16;11.70;;;5.18;;
9924;SDS011;5001;51.674;7.868;2023-10-13T12:01:50;8.05;;;4.25;;
9924;SDS011;5001;51.674;7.868;2023-10-13T12:04:37;10.23;;;4.32;;
9924;SDS011;5001;51.674;7.868;2023-10-13T12:07:15;13.38;;;4.63;;
9924;SDS011;5001;51.674;7.868;2023-10-13T12:10:01;17.10;;;4.45;;
9924;SDS011;5001;51.674;7.868;2023-10-13T12:12:30;13.02;;;4.78;;
9924;SDS011;5001;51.674;7.868;2023-10-13T12:14:57;12.93;;;4.30;;
9924;SDS011;5001;51.674;7.868;2023-10-13T12:17:35;10.88;;;4.40;;
9924;SDS011;5001;51.674;7.868;2023-10-13T12:20:03;9.10;;;3.97;;
9924;SDS011;5001;51.674;7.868;2023-10-13T12:22:36;13.43;;;3.97;;
9924;SDS011;5001;51.674;7.868;2023-10-13T12:25:09;8.93;;;4.15;;
9924;SDS011;5001;51.674;7.868;2023-10-13T12:27:54;11.70;;;4.95;;
9924;SDS011;5001;51.674;7.868;2023-10-13T12:30:26;8.63;;;4.18;;
9924;SDS011;5001;51.674;7.868;2023-10-13T12:33:02;9.45;;;4.72;;
9924;SDS011;5001;51.674;7.868;2023-10-13T12:35:36;13.23;;;5.22;;
9924;SDS011;5001;51.674;7.868;2023-10-13T12:38:26;8.43;;;4.75;;
9924;SDS011;5001;51.674;7.868;2023-10-13T12:41:18;9.95;;;4.15;;
9924;SDS011;5001;51.674;7.868;2023-10-13T12:44:05;9.52;;;4.05;;
9924;SDS011;5001;51.674;7.868;2023-10-13T12:46:52;8.93;;;4.22;;
9924;SDS011;5001;51.674;7.868;2023-10-13T12:49:39;6.82;;;4.20;;
9924;SDS011;5001;51.674;7.868;2023-10-13T12:52:10;10.23;;;4.55;;
9924;SDS011;5001;51.674;7.868;2023-10-13T12:54:58;9.63;;;4.57;;
9924;SDS011;5001;51.674;7.868;2023-10-13T12:57:32;9.98;;;4.32;;
9924;SDS011;5001;51.674;7.868;2023-10-13T13:00:00;8.98;;;4.78;;
9924;SDS011;5001;51.674;7.868;2023-10-13T13:02:29;10.00;;;4.95;;
9924;SDS011;5001;51.674;7.868;2023-10-13T13:04:56;11.73;;;4.65;;
9924;SDS011;5001;51.674;7.868;2023-10-13T13:07:32;9.68;;;3.97;;
9924;SDS011;5001;51.674;7.868;2023-10-13T13:10:10;8.35;;;4.13;;
9924;SDS011;5001;51.674;7.868;2023-10-13T13:12:39;15.00;;;4.57;;
9924;SDS011;5001;51.674;7.868;2023-10-13T13:15:06;16.15;;;6.35;;
9924;SDS011;5001;51.674;7.868;2023-10-13T13:17:35;9.05;;;5.05;;
9924;SDS011;5001;51.674;7.868;2023-10-13T13:20:03;13.35;;;4.95;;
9924;SDS011;5001;51.674;7.868;2023-10-13T13:22:38;7.80;;;4.35;;
9924;SDS011;5001;51.674;7.868;2023-10-13T13:25:05;11.00;;;4.72;;
9924;SDS011;5001;51.674;7.868;2023-10-13T13:27:35;9.93;;;4.90;;
9924;SDS011;5001;51.674;7.868;2023-10-13T13:30:08;10.20;;;5.03;;
9924;SDS011;5001;51.674;7.868;2023-10-13T13:32:39;8.40;;;4.30;;
9924;SDS011;5001;51.674;7.868;2023-10-13T13:35:12;12.18;;;5.82;;
9924;SDS011;5001;51.674;7.868;2023-10-13T13:37:45;7.07;;;4.50;;
9924;SDS011;5001;51.674;7.868;2023-10-13T13:40:12;10.90;;;4.35;;
9924;SDS011;5001;51.674;7.868;2023-10-13T13:42:42;10.80;;;4.82;;
9924;SDS011;5001;51.674;7.868;2023-10-13T13:45:14;12.20;;;4.13;;
9924;SDS011;5001;51.674;7.868;2023-10-13T13:47:48;9.05;;;4.00;;
9924;SDS011;5001;51.674;7.868;2023-10-13T13:50:23;9.23;;;4.32;;
9924;SDS011;5001;51.674;7.868;2023-10-13T13:52:53;22.40;;;4.43;;
9924;SDS011;5001;51.674;7.868;2023-10-13T13:55:24;10.85;;;4.32;;
9924;SDS011;5001;51.674;7.868;2023-10-13T13:57:56;8.85;;;4.07;;
9924;SDS011;5001;51.674;7.868;2023-10-13T14:00:23;7.97;;;4.20;;
9924;SDS011;5001;51.674;7.868;2023-10-13T14:03:14;6.00;;;3.92;;
9924;SDS011;5001;51.674;7.868;2023-10-13T14:06:00;8.77;;;4.38;;
9924;SDS011;5001;51.674;7.868;2023-10-13T14:08:27;11.50;;;4.35;;
9924;SDS011;5001;51.674;7.868;2023-10-13T14:10:54;9.43;;;4.47;;
9924;SDS011;5001;51.674;7.868;2023-10-13T14:13:40;8.77;;;4.43;;
9924;SDS011;5001;51.674;7.868;2023-10-13T14:16:17;7.50;;;4.60;;
9924;SDS011;5001;51.674;7.868;2023-10-13T14:18:46;9.80;;;3.90;;
9924;SDS011;5001;51.674;7.868;2023-10-13T14:21:14;9.70;;;4.22;;
9924;SDS011;5001;51.674;7.868;2023-10-13T14:23:51;9.88;;;4.25;;
9924;SDS011;5001;51.674;7.868;2023-10-13T14:26:21;7.10;;;4.35;;
9924;SDS011;5001;51.674;7.868;2023-10-13T14:28:52;13.23;;;4.60;;
9924;SDS011;5001;51.674;7.868;2023-10-13T14:31:32;9.57;;;5.13;;
9924;SDS011;5001;51.674;7.868;2023-10-13T14:34:00;9.70;;;4.70;;
9924;SDS011;5001;51.674;7.868;2023-10-13T14:36:27;9.40;;;4.25;;
9924;SDS011;5001;51.674;7.868;2023-10-13T14:38:55;8.55;;;4.28;;
9924;SDS011;5001;51.674;7.868;2023-10-13T14:41:23;10.93;;;4.47;;
9924;SDS011;5001;51.674;7.868;2023-10-13T14:43:50;9.25;;;4.10;;
9924;SDS011;5001;51.674;7.868;2023-10-13T14:46:18;9.45;;;3.80;;
9924;SDS011;5001;51.674;7.868;2023-10-13T14:48:52;9.98;;;4.30;;
9924;SDS011;5001;51.674;7.868;2023-10-13T14:51:20;13.82;;;4.20;;
9924;SDS011;5001;51.674;7.868;2023-10-13T14:53:47;8.68;;;4.75;;
9924;SDS011;5001;51.674;7.868;2023-10-13T14:56:18;16.95;;;4.40;;
9924;SDS011;5001;51.674;7.868;2023-10-13T14:58:45;9.82;;;3.63;;
9924;SDS011;5001;51.674;7.868;2023-10-13T15:01:17;10.45;;;4.97;;
9924;SDS011;5001;51.674;7.868;2023-10-13T15:03:49;6.13;;;3.63;;
9924;SDS011;5001;51.674;7.868;2023-10-13T15:06:26;10.60;;;4.57;;
9924;SDS011;5001;51.674;7.868;2023-10-13T15:08:57;10.52;;;4.63;;
9924;SDS011;5001;51.674;7.868;2023-10-13T15:11:27;15.98;;;4.40;;
9924;SDS011;5001;51.674;7.868;2023-10-13T15:14:15;15.07;;;4.28;;
9924;SDS011;5001;51.674;7.868;2023-10-13T15:16:42;10.43;;;4.10;;
9924;SDS011;5001;51.674;7.868;2023-10-13T15:19:10;8.40;;;4.20;;
9924;SDS011;5001;51.674;7.868;2023-10-13T15:21:39;7.43;;;3.88;;
9924;SDS011;5001;51.674;7.868;2023-10-13T15:24:07;9.00;;;4.18;;
9924;SDS011;5001;51.674;7.868;2023-10-13T15:26:43;11.82;;;4.10;;
9924;SDS011;5001;51.674;7.868;2023-10-13T15:29:17;8.35;;;4.28;;
9924;SDS011;5001;51.674;7.868;2023-10-13T15:31:51;8.15;;;3.95;;
9924;SDS011;5001;51.674;7.868;2023-10-13T15:34:25;9.02;;;3.88;;
9924;SDS011;5001;51.674;7.868;2023-10-13T15:36:57;15.50;;;3.85;;
9924;SDS011;5001;51.674;7.868;2023-10-13T15:39:25;8.85;;;3.75;;
9924;SDS011;5001;51.674;7.868;2023-10-13T15:41:57;9.80;;;4.10;;
9924;SDS011;5001;51.674;7.868;2023-10-13T15:44:25;12.95;;;4.53;;
9924;SDS011;5001;51.674;7.868;2023-10-13T15:46:57;9.10;;;3.63;;
9924;SDS011;5001;51.674;7.868;2023-10-13T15:49:31;8.27;;;3.85;;
9924;SDS011;5001;51.674;7.868;2023-10-13T15:52:00;11.18;;;4.32;;
9924;SDS011;5001;51.674;7.868;2023-10-13T15:54:28;6.47;;;4.18;;
9924;SDS011;5001;51.674;7.868;2023-10-13T15:56:55;9.98;;;4.20;;
9924;SDS011;5001;51.674;7.868;2023-10-13T15:59:23;8.98;;;3.83;;
9924;SDS011;5001;51.674;7.868;2023-10-13T16:01:50;10.25;;;3.95;;
9924;SDS011;5001;51.674;7.868;2023-10-13T16:04:23;12.73;;;4.55;;
9924;SDS011;5001;51.674;7.868;2023-10-13T16:06:51;10.82;;;4.65;;
9924;SDS011;5001;51.674;7.868;2023-10-13T16:09:18;12.00;;;4.72;;
9924;SDS011;5001;51.674;7.868;2023-10-13T16:11:52;13.35;;;3.78;;